sensor_id;sensor_type;location;lat;lon;timestamp;P1;durP1;ratioP1;P2;durP2;ratioP2
41201;SDS011;26936;50.524;8.684;2024-03-02T00:00:19;9.60;;;6.57;;
41201;SDS011;26936;50.524;8.684;2024-03-02T00:02:47;11.23;;;6.80;;
41201;SDS011;26936;50.524;8.684;2024-03-02T00:05:17;10.80;;;7.43;;
41201;SDS011;26936;50.524;8.684;2024-03-02T00:07:45;10.90;;;6.97;;
41201;SDS011;26936;50.524;8.684;2024-03-02T00:10:14;10.57;;;7.07;;
41201;SDS011;26936;50.524;8.684;2024-03-02T00:12:45;11.15;;;6.72;;
41201;SDS011;26936;50.524;8.684;2024-03-02T00:15:34;10.50;;;6.93;;
41201;SDS011;26936;50.524;8.684;2024-03-02T00:18:12;10.48;;;6.97;;
41201;SDS011;26936;50.524;8.684;2024-03-02T00:20:39;13.07;;;7.30;;
41201;SDS011;26936;50.524;8.684;2024-03-02T00:23:08;10.52;;;6.95;;
41201;SDS011;26936;50.524;8.684;2024-03-02T00:25:39;10.27;;;7.32;;
41201;SDS011;26936;50.524;8.684;2024-03-02T00:28:21;12.05;;;7.20;;
41201;SDS011;26936;50.524;8.684;2024-03-02T00:33:32;14.05;;;7.03;;
41201;SDS011;26936;50.524;8.684;2024-03-02T00:36:04;13.48;;;7.50;;
41201;SDS011;26936;50.524;8.684;2024-03-02T00:38:31;14.52;;;7.82;;
41201;SDS011;26936;50.524;8.684;2024-03-02T00:41:04;10.88;;;7.47;;
41201;SDS011;26936;50.524;8.684;2024-03-02T00:43:40;12.88;;;7.82;;
41201;SDS011;26936;50.524;8.684;2024-03-02T00:46:06;12.55;;;7.72;;
41201;SDS011;26936;50.524;8.684;2024-03-02T00:48:32;14.02;;;7.70;;
41201;SDS011;26936;50.524;8.684;2024-03-02T00:51:00;13.05;;;7.90;;
41201;SDS011;26936;50.524;8.684;2024-03-02T00:53:26;12.07;;;8.20;;
41201;SDS011;26936;50.524;8.684;2024-03-02T00:55:52;15.25;;;8.45;;
41201;SDS011;26936;50.524;8.684;2024-03-02T00:58:18;13.23;;;8.75;;
41201;SDS011;26936;50.524;8.684;2024-03-02T01:00:43;13.00;;;8.33;;
41201;SDS011;26936;50.524;8.684;2024-03-02T01:03:08;12.65;;;7.93;;
41201;SDS011;26936;50.524;8.684;2024-03-02T01:05:35;13.82;;;8.30;;
41201;SDS011;26936;50.524;8.684;2024-03-02T01:08:00;13.43;;;8.27;;
41201;SDS011;26936;50.524;8.684;2024-03-02T01:10:26;16.80;;;9.50;;
41201;SDS011;26936;50.524;8.684;2024-03-02T01:12:51;15.53;;;9.23;;
41201;SDS011;26936;50.524;8.684;2024-03-02T01:15:16;15.27;;;9.57;;
41201;SDS011;26936;50.524;8.684;2024-03-02T01:17:42;14.85;;;9.27;;
41201;SDS011;26936;50.524;8.684;2024-03-02T01:20:08;13.50;;;8.20;;
41201;SDS011;26936;50.524;8.684;2024-03-02T01:22:34;15.18;;;9.23;;
41201;SDS011;26936;50.524;8.684;2024-03-02T01:25:00;15.95;;;9.52;;
41201;SDS011;26936;50.524;8.684;2024-03-02T01:27:26;15.80;;;9.45;;
41201;SDS011;26936;50.524;8.684;2024-03-02T01:29:51;18.38;;;9.07;;
41201;SDS011;26936;50.524;8.684;2024-03-02T01:32:17;14.13;;;9.15;;
41201;SDS011;26936;50.524;8.684;2024-03-02T01:34:42;16.70;;;9.63;;
41201;SDS011;26936;50.524;8.684;2024-03-02T01:37:08;15.82;;;9.98;;
41201;SDS011;26936;50.524;8.684;2024-03-02T01:39:33;14.07;;;9.15;;
41201;SDS011;26936;50.524;8.684;2024-03-02T01:41:58;16.80;;;10.10;;
41201;SDS011;26936;50.524;8.684;2024-03-02T01:44:24;17.52;;;9.98;;
41201;SDS011;26936;50.524;8.684;2024-03-02T01:46:49;19.23;;;11.07;;
41201;SDS011;26936;50.524;8.684;2024-03-02T01:49:15;14.60;;;9.32;;
41201;SDS011;26936;50.524;8.684;2024-03-02T01:51:41;15.67;;;9.97;;
41201;SDS011;26936;50.524;8.684;2024-03-02T01:54:06;14.73;;;8.65;;
41201;SDS011;26936;50.524;8.684;2024-03-02T01:56:31;16.05;;;9.85;;
41201;SDS011;26936;50.524;8.684;2024-03-02T01:58:56;17.45;;;10.70;;
41201;SDS011;26936;50.524;8.684;2024-03-02T02:01:22;18.48;;;10.52;;
41201;SDS011;26936;50.524;8.684;2024-03-02T02:03:47;19.17;;;11.33;;
41201;SDS011;26936;50.524;8.684;2024-03-02T02:06:12;20.00;;;10.95;;
41201;SDS011;26936;50.524;8.684;2024-03-02T02:08:38;20.50;;;11.52;;
41201;SDS011;26936;50.524;8.684;2024-03-02T02:11:03;19.92;;;11.98;;
41201;SDS011;26936;50.524;8.684;2024-03-02T02:13:28;19.02;;;11.82;;
41201;SDS011;26936;50.524;8.684;2024-03-02T02:15:53;19.40;;;11.73;;
41201;SDS011;26936;50.524;8.684;2024-03-02T02:18:19;20.48;;;10.90;;
41201;SDS011;26936;50.524;8.684;2024-03-02T02:20:44;18.80;;;11.40;;
41201;SDS011;26936;50.524;8.684;2024-03-02T02:23:09;19.87;;;12.40;;
41201;SDS011;26936;50.524;8.684;2024-03-02T02:25:35;17.77;;;11.82;;
41201;SDS011;26936;50.524;8.684;2024-03-02T02:28:00;19.80;;;12.45;;
41201;SDS011;26936;50.524;8.684;2024-03-02T02:30:26;20.75;;;12.35;;
41201;SDS011;26936;50.524;8.684;2024-03-02T02:32:53;20.15;;;11.57;;
41201;SDS011;26936;50.524;8.684;2024-03-02T02:35:19;21.42;;;12.50;;
41201;SDS011;26936;50.524;8.684;2024-03-02T02:37:45;18.38;;;11.02;;
41201;SDS011;26936;50.524;8.684;2024-03-02T02:40:11;18.80;;;12.07;;
41201;SDS011;26936;50.524;8.684;2024-03-02T02:42:37;22.48;;;12.50;;
41201;SDS011;26936;50.524;8.684;2024-03-02T02:45:03;22.80;;;12.98;;
41201;SDS011;26936;50.524;8.684;2024-03-02T02:47:29;21.02;;;12.23;;
41201;SDS011;26936;50.524;8.684;2024-03-02T02:49:54;22.88;;;13.70;;
41201;SDS011;26936;50.524;8.684;2024-03-02T02:52:20;23.10;;;14.10;;
41201;SDS011;26936;50.524;8.684;2024-03-02T02:54:46;24.95;;;14.30;;
41201;SDS011;26936;50.524;8.684;2024-03-02T02:57:11;24.98;;;14.73;;
41201;SDS011;26936;50.524;8.684;2024-03-02T02:59:36;23.90;;;13.57;;
41201;SDS011;26936;50.524;8.684;2024-03-02T03:02:02;23.23;;;13.83;;
41201;SDS011;26936;50.524;8.684;2024-03-02T03:04:27;23.42;;;13.95;;
41201;SDS011;26936;50.524;8.684;2024-03-02T03:06:52;26.83;;;15.10;;
41201;SDS011;26936;50.524;8.684;2024-03-02T03:09:18;29.83;;;16.23;;
41201;SDS011;26936;50.524;8.684;2024-03-02T03:11:43;30.17;;;16.10;;
41201;SDS011;26936;50.524;8.684;2024-03-02T03:14:09;30.60;;;16.67;;
41201;SDS011;26936;50.524;8.684;2024-03-02T03:16:34;27.77;;;15.32;;
41201;SDS011;26936;50.524;8.684;2024-03-02T03:18:59;30.70;;;16.77;;
41201;SDS011;26936;50.524;8.684;2024-03-02T03:21:24;33.47;;;17.13;;
41201;SDS011;26936;50.524;8.684;2024-03-02T03:23:50;31.88;;;17.60;;
41201;SDS011;26936;50.524;8.684;2024-03-02T03:26:15;35.13;;;17.45;;
41201;SDS011;26936;50.524;8.684;2024-03-02T03:28:40;34.33;;;16.98;;
41201;SDS011;26936;50.524;8.684;2024-03-02T03:31:06;29.98;;;16.90;;
41201;SDS011;26936;50.524;8.684;2024-03-02T03:33:32;36.10;;;18.23;;
41201;SDS011;26936;50.524;8.684;2024-03-02T03:35:57;32.28;;;18.20;;
41201;SDS011;26936;50.524;8.684;2024-03-02T03:38:22;34.83;;;18.00;;
41201;SDS011;26936;50.524;8.684;2024-03-02T03:40:47;36.77;;;18.63;;
41201;SDS011;26936;50.524;8.684;2024-03-02T03:43:13;33.75;;;18.35;;
41201;SDS011;26936;50.524;8.684;2024-03-02T03:45:38;39.90;;;20.27;;
41201;SDS011;26936;50.524;8.684;2024-03-02T03:48:03;37.00;;;18.58;;
41201;SDS011;26936;50.524;8.684;2024-03-02T03:50:29;34.75;;;19.05;;
41201;SDS011;26936;50.524;8.684;2024-03-02T03:52:54;39.40;;;19.00;;
41201;SDS011;26936;50.524;8.684;2024-03-02T03:55:19;38.17;;;18.37;;
41201;SDS011;26936;50.524;8.684;2024-03-02T03:57:45;41.10;;;19.95;;
41201;SDS011;26936;50.524;8.684;2024-03-02T04:00:10;33.00;;;17.67;;
41201;SDS011;26936;50.524;8.684;2024-03-02T04:02:37;38.75;;;20.67;;
41201;SDS011;26936;50.524;8.684;2024-03-02T04:05:02;36.42;;;18.15;;
41201;SDS011;26936;50.524;8.684;2024-03-02T04:07:30;37.13;;;19.60;;
41201;SDS011;26936;50.524;8.684;2024-03-02T04:09:55;39.75;;;20.70;;
41201;SDS011;26936;50.524;8.684;2024-03-02T04:12:20;42.20;;;19.63;;
41201;SDS011;26936;50.524;8.684;2024-03-02T04:14:46;39.95;;;20.67;;
41201;SDS011;26936;50.524;8.684;2024-03-02T04:17:11;40.90;;;19.52;;
41201;SDS011;26936;50.524;8.684;2024-03-02T04:19:36;37.37;;;19.77;;
41201;SDS011;26936;50.524;8.684;2024-03-02T04:22:01;39.10;;;19.52;;
41201;SDS011;26936;50.524;8.684;2024-03-02T04:24:27;39.87;;;19.07;;
41201;SDS011;26936;50.524;8.684;2024-03-02T04:26:52;38.67;;;19.48;;
41201;SDS011;26936;50.524;8.684;2024-03-02T04:29:17;35.95;;;19.30;;
41201;SDS011;26936;50.524;8.684;2024-03-02T04:31:43;36.67;;;19.42;;
41201;SDS011;26936;50.524;8.684;2024-03-02T04:34:09;38.85;;;19.77;;
41201;SDS011;26936;50.524;8.684;2024-03-02T04:36:34;36.88;;;19.90;;
41201;SDS011;26936;50.524;8.684;2024-03-02T04:38:59;36.42;;;19.40;;
41201;SDS011;26936;50.524;8.684;2024-03-02T04:41:24;40.63;;;19.57;;
41201;SDS011;26936;50.524;8.684;2024-03-02T04:43:50;42.97;;;20.17;;
41201;SDS011;26936;50.524;8.684;2024-03-02T04:46:15;36.23;;;19.30;;
41201;SDS011;26936;50.524;8.684;2024-03-02T04:48:40;40.28;;;20.08;;
41201;SDS011;26936;50.524;8.684;2024-03-02T04:51:05;37.85;;;19.08;;
41201;SDS011;26936;50.524;8.684;2024-03-02T04:53:31;35.90;;;19.20;;
41201;SDS011;26936;50.524;8.684;2024-03-02T04:55:56;40.05;;;19.55;;
41201;SDS011;26936;50.524;8.684;2024-03-02T04:58:40;37.33;;;19.65;;
41201;SDS011;26936;50.524;8.684;2024-03-02T05:01:05;40.60;;;20.20;;
41201;SDS011;26936;50.524;8.684;2024-03-02T05:03:31;37.45;;;18.92;;
41201;SDS011;26936;50.524;8.684;2024-03-02T05:05:58;38.13;;;19.30;;
41201;SDS011;26936;50.524;8.684;2024-03-02T05:08:24;39.27;;;20.13;;
41201;SDS011;26936;50.524;8.684;2024-03-02T05:10:49;37.40;;;18.73;;
41201;SDS011;26936;50.524;8.684;2024-03-02T05:13:14;39.30;;;19.83;;
41201;SDS011;26936;50.524;8.684;2024-03-02T05:15:40;36.42;;;18.63;;
41201;SDS011;26936;50.524;8.684;2024-03-02T05:18:05;46.38;;;20.92;;
41201;SDS011;26936;50.524;8.684;2024-03-02T05:20:31;40.83;;;20.10;;
41201;SDS011;26936;50.524;8.684;2024-03-02T05:22:56;36.30;;;18.08;;
41201;SDS011;26936;50.524;8.684;2024-03-02T05:25:21;36.28;;;18.58;;
41201;SDS011;26936;50.524;8.684;2024-03-02T05:27:47;36.45;;;18.70;;
41201;SDS011;26936;50.524;8.684;2024-03-02T05:30:12;34.17;;;18.35;;
41201;SDS011;26936;50.524;8.684;2024-03-02T05:32:38;39.53;;;19.50;;
41201;SDS011;26936;50.524;8.684;2024-03-02T05:35:04;38.42;;;19.42;;
41201;SDS011;26936;50.524;8.684;2024-03-02T05:37:30;35.90;;;18.20;;
41201;SDS011;26936;50.524;8.684;2024-03-02T05:39:55;35.53;;;17.90;;
41201;SDS011;26936;50.524;8.684;2024-03-02T05:42:20;38.65;;;19.15;;
41201;SDS011;26936;50.524;8.684;2024-03-02T05:44:45;38.03;;;18.70;;
41201;SDS011;26936;50.524;8.684;2024-03-02T05:47:11;40.10;;;19.17;;
41201;SDS011;26936;50.524;8.684;2024-03-02T05:49:36;37.83;;;18.13;;
41201;SDS011;26936;50.524;8.684;2024-03-02T05:52:01;36.40;;;17.58;;
41201;SDS011;26936;50.524;8.684;2024-03-02T05:54:26;35.17;;;17.00;;
41201;SDS011;26936;50.524;8.684;2024-03-02T05:56:52;34.53;;;17.08;;
41201;SDS011;26936;50.524;8.684;2024-03-02T05:59:17;36.70;;;18.15;;
41201;SDS011;26936;50.524;8.684;2024-03-02T06:01:43;34.35;;;16.73;;
41201;SDS011;26936;50.524;8.684;2024-03-02T06:04:10;32.85;;;17.15;;
41201;SDS011;26936;50.524;8.684;2024-03-02T06:06:39;35.13;;;17.40;;
41201;SDS011;26936;50.524;8.684;2024-03-02T06:09:05;36.83;;;17.60;;
41201;SDS011;26936;50.524;8.684;2024-03-02T06:11:33;34.03;;;17.63;;
41201;SDS011;26936;50.524;8.684;2024-03-02T06:14:01;35.58;;;18.23;;
41201;SDS011;26936;50.524;8.684;2024-03-02T06:16:27;33.90;;;17.45;;
41201;SDS011;26936;50.524;8.684;2024-03-02T06:18:52;33.20;;;17.52;;
41201;SDS011;26936;50.524;8.684;2024-03-02T06:21:19;33.53;;;17.33;;
41201;SDS011;26936;50.524;8.684;2024-03-02T06:23:44;33.45;;;16.67;;
41201;SDS011;26936;50.524;8.684;2024-03-02T06:26:10;34.95;;;16.67;;
41201;SDS011;26936;50.524;8.684;2024-03-02T06:28:35;33.85;;;16.75;;
41201;SDS011;26936;50.524;8.684;2024-03-02T06:31:01;29.35;;;16.52;;
41201;SDS011;26936;50.524;8.684;2024-03-02T06:33:27;32.00;;;16.42;;
41201;SDS011;26936;50.524;8.684;2024-03-02T06:35:53;28.02;;;14.98;;
41201;SDS011;26936;50.524;8.684;2024-03-02T06:38:18;27.92;;;14.82;;
41201;SDS011;26936;50.524;8.684;2024-03-02T06:40:44;28.10;;;14.85;;
41201;SDS011;26936;50.524;8.684;2024-03-02T06:43:09;30.35;;;16.02;;
41201;SDS011;26936;50.524;8.684;2024-03-02T06:45:34;29.15;;;15.75;;
41201;SDS011;26936;50.524;8.684;2024-03-02T06:48:00;27.35;;;14.60;;
41201;SDS011;26936;50.524;8.684;2024-03-02T06:50:25;28.98;;;15.25;;
41201;SDS011;26936;50.524;8.684;2024-03-02T06:52:51;27.58;;;14.13;;
41201;SDS011;26936;50.524;8.684;2024-03-02T06:55:17;26.35;;;14.25;;
41201;SDS011;26936;50.524;8.684;2024-03-02T06:57:42;28.30;;;14.57;;
41201;SDS011;26936;50.524;8.684;2024-03-02T07:00:07;27.25;;;14.27;;
41201;SDS011;26936;50.524;8.684;2024-03-02T07:02:34;27.25;;;14.50;;
41201;SDS011;26936;50.524;8.684;2024-03-02T07:04:59;26.10;;;14.20;;
41201;SDS011;26936;50.524;8.684;2024-03-02T07:07:25;26.88;;;14.23;;
41201;SDS011;26936;50.524;8.684;2024-03-02T07:09:50;25.20;;;13.43;;
41201;SDS011;26936;50.524;8.684;2024-03-02T07:12:15;25.20;;;13.98;;
41201;SDS011;26936;50.524;8.684;2024-03-02T07:14:41;24.77;;;12.93;;
41201;SDS011;26936;50.524;8.684;2024-03-02T07:17:24;22.83;;;12.75;;
41201;SDS011;26936;50.524;8.684;2024-03-02T07:19:50;22.15;;;12.50;;
41201;SDS011;26936;50.524;8.684;2024-03-02T07:22:16;23.52;;;13.07;;
41201;SDS011;26936;50.524;8.684;2024-03-02T07:24:41;20.98;;;12.52;;
41201;SDS011;26936;50.524;8.684;2024-03-02T07:27:08;23.63;;;13.18;;
41201;SDS011;26936;50.524;8.684;2024-03-02T07:29:34;22.02;;;12.70;;
41201;SDS011;26936;50.524;8.684;2024-03-02T07:31:59;23.65;;;12.98;;
41201;SDS011;26936;50.524;8.684;2024-03-02T07:34:24;21.42;;;11.75;;
41201;SDS011;26936;50.524;8.684;2024-03-02T07:36:50;21.65;;;12.32;;
41201;SDS011;26936;50.524;8.684;2024-03-02T07:39:15;22.52;;;12.35;;
41201;SDS011;26936;50.524;8.684;2024-03-02T07:41:41;24.25;;;12.80;;
41201;SDS011;26936;50.524;8.684;2024-03-02T07:44:06;22.85;;;11.93;;
41201;SDS011;26936;50.524;8.684;2024-03-02T07:46:32;21.25;;;11.82;;
41201;SDS011;26936;50.524;8.684;2024-03-02T07:48:57;19.23;;;11.70;;
41201;SDS011;26936;50.524;8.684;2024-03-02T07:51:22;21.93;;;12.27;;
41201;SDS011;26936;50.524;8.684;2024-03-02T07:53:48;24.45;;;12.50;;
41201;SDS011;26936;50.524;8.684;2024-03-02T07:56:13;28.23;;;12.65;;
41201;SDS011;26936;50.524;8.684;2024-03-02T07:58:39;22.67;;;11.48;;
41201;SDS011;26936;50.524;8.684;2024-03-02T08:01:05;22.00;;;12.52;;
41201;SDS011;26936;50.524;8.684;2024-03-02T08:03:31;20.80;;;11.77;;
41201;SDS011;26936;50.524;8.684;2024-03-02T08:05:57;19.00;;;11.25;;
41201;SDS011;26936;50.524;8.684;2024-03-02T08:08:22;22.83;;;12.35;;
41201;SDS011;26936;50.524;8.684;2024-03-02T08:13:36;21.92;;;11.13;;
41201;SDS011;26936;50.524;8.684;2024-03-02T08:16:01;23.05;;;11.88;;
41201;SDS011;26936;50.524;8.684;2024-03-02T08:18:28;21.05;;;11.15;;
41201;SDS011;26936;50.524;8.684;2024-03-02T08:20:53;21.88;;;11.65;;
41201;SDS011;26936;50.524;8.684;2024-03-02T08:23:19;21.05;;;11.38;;
41201;SDS011;26936;50.524;8.684;2024-03-02T08:25:44;21.08;;;10.80;;
41201;SDS011;26936;50.524;8.684;2024-03-02T08:28:10;18.23;;;10.90;;
41201;SDS011;26936;50.524;8.684;2024-03-02T08:30:35;18.80;;;10.38;;
41201;SDS011;26936;50.524;8.684;2024-03-02T08:33:00;19.83;;;11.13;;
41201;SDS011;26936;50.524;8.684;2024-03-02T08:35:26;17.25;;;9.73;;
41201;SDS011;26936;50.524;8.684;2024-03-02T08:37:51;20.47;;;10.83;;
41201;SDS011;26936;50.524;8.684;2024-03-02T08:40:16;18.58;;;10.80;;
41201;SDS011;26936;50.524;8.684;2024-03-02T08:42:42;19.70;;;10.80;;
41201;SDS011;26936;50.524;8.684;2024-03-02T08:45:07;21.80;;;10.65;;
41201;SDS011;26936;50.524;8.684;2024-03-02T08:47:33;17.63;;;9.98;;
41201;SDS011;26936;50.524;8.684;2024-03-02T08:49:59;20.65;;;11.43;;
41201;SDS011;26936;50.524;8.684;2024-03-02T08:52:24;18.55;;;10.80;;
41201;SDS011;26936;50.524;8.684;2024-03-02T08:54:50;20.40;;;10.40;;
41201;SDS011;26936;50.524;8.684;2024-03-02T08:57:15;20.80;;;10.90;;
41201;SDS011;26936;50.524;8.684;2024-03-02T08:59:40;19.50;;;10.50;;
41201;SDS011;26936;50.524;8.684;2024-03-02T09:02:06;17.10;;;10.02;;
41201;SDS011;26936;50.524;8.684;2024-03-02T09:04:31;17.25;;;9.38;;
41201;SDS011;26936;50.524;8.684;2024-03-02T09:06:57;16.67;;;9.75;;
41201;SDS011;26936;50.524;8.684;2024-03-02T09:09:22;16.80;;;10.50;;
41201;SDS011;26936;50.524;8.684;2024-03-02T09:11:48;16.77;;;10.35;;
41201;SDS011;26936;50.524;8.684;2024-03-02T09:14:13;17.35;;;9.80;;
41201;SDS011;26936;50.524;8.684;2024-03-02T09:16:39;16.73;;;9.77;;
41201;SDS011;26936;50.524;8.684;2024-03-02T09:19:05;16.02;;;9.70;;
41201;SDS011;26936;50.524;8.684;2024-03-02T09:21:30;18.88;;;10.52;;
41201;SDS011;26936;50.524;8.684;2024-03-02T09:23:55;19.13;;;10.13;;
41201;SDS011;26936;50.524;8.684;2024-03-02T09:26:21;20.15;;;10.02;;
41201;SDS011;26936;50.524;8.684;2024-03-02T09:28:49;17.77;;;9.73;;
41201;SDS011;26936;50.524;8.684;2024-03-02T09:31:15;15.70;;;9.20;;
41201;SDS011;26936;50.524;8.684;2024-03-02T09:33:40;17.33;;;10.35;;
41201;SDS011;26936;50.524;8.684;2024-03-02T09:36:05;17.97;;;9.73;;
41201;SDS011;26936;50.524;8.684;2024-03-02T09:38:34;15.10;;;9.43;;
41201;SDS011;26936;50.524;8.684;2024-03-02T09:40:59;18.92;;;9.93;;
41201;SDS011;26936;50.524;8.684;2024-03-02T09:43:26;16.90;;;9.70;;
41201;SDS011;26936;50.524;8.684;2024-03-02T09:45:51;16.55;;;9.13;;
41201;SDS011;26936;50.524;8.684;2024-03-02T09:48:17;15.95;;;9.80;;
41201;SDS011;26936;50.524;8.684;2024-03-02T09:50:43;17.75;;;10.60;;
41201;SDS011;26936;50.524;8.684;2024-03-02T09:53:09;16.83;;;10.05;;
41201;SDS011;26936;50.524;8.684;2024-03-02T09:55:36;19.17;;;9.80;;
41201;SDS011;26936;50.524;8.684;2024-03-02T09:58:02;17.70;;;10.13;;
41201;SDS011;26936;50.524;8.684;2024-03-02T10:00:28;17.65;;;10.27;;
41201;SDS011;26936;50.524;8.684;2024-03-02T10:02:53;16.00;;;10.10;;
41201;SDS011;26936;50.524;8.684;2024-03-02T10:05:23;17.63;;;9.55;;
41201;SDS011;26936;50.524;8.684;2024-03-02T10:08:00;17.30;;;10.10;;
41201;SDS011;26936;50.524;8.684;2024-03-02T10:10:35;16.42;;;9.40;;
41201;SDS011;26936;50.524;8.684;2024-03-02T10:13:04;15.70;;;9.88;;
41201;SDS011;26936;50.524;8.684;2024-03-02T10:15:30;16.23;;;9.57;;
41201;SDS011;26936;50.524;8.684;2024-03-02T10:17:56;15.43;;;10.03;;
41201;SDS011;26936;50.524;8.684;2024-03-02T10:20:23;16.67;;;9.80;;
41201;SDS011;26936;50.524;8.684;2024-03-02T10:22:49;16.17;;;9.88;;
41201;SDS011;26936;50.524;8.684;2024-03-02T10:27:59;15.60;;;9.82;;
41201;SDS011;26936;50.524;8.684;2024-03-02T10:30:26;14.98;;;9.68;;
41201;SDS011;26936;50.524;8.684;2024-03-02T10:32:53;17.45;;;9.80;;
41201;SDS011;26936;50.524;8.684;2024-03-02T10:35:20;15.95;;;9.68;;
41201;SDS011;26936;50.524;8.684;2024-03-02T10:37:47;15.68;;;9.77;;
41201;SDS011;26936;50.524;8.684;2024-03-02T10:40:12;19.80;;;9.50;;
41201;SDS011;26936;50.524;8.684;2024-03-02T10:42:38;14.60;;;9.35;;
41201;SDS011;26936;50.524;8.684;2024-03-02T10:45:05;16.02;;;9.50;;
41201;SDS011;26936;50.524;8.684;2024-03-02T10:47:31;15.15;;;9.35;;
41201;SDS011;26936;50.524;8.684;2024-03-02T10:49:59;14.18;;;8.98;;
41201;SDS011;26936;50.524;8.684;2024-03-02T10:52:26;13.73;;;8.63;;
41201;SDS011;26936;50.524;8.684;2024-03-02T10:54:51;14.40;;;8.80;;
41201;SDS011;26936;50.524;8.684;2024-03-02T10:57:17;14.40;;;8.60;;
41201;SDS011;26936;50.524;8.684;2024-03-02T10:59:50;12.90;;;8.40;;
41201;SDS011;26936;50.524;8.684;2024-03-02T11:02:17;13.82;;;7.55;;
41201;SDS011;26936;50.524;8.684;2024-03-02T11:04:46;12.63;;;8.07;;
41201;SDS011;26936;50.524;8.684;2024-03-02T11:07:13;12.20;;;7.95;;
41201;SDS011;26936;50.524;8.684;2024-03-02T11:09:51;11.93;;;8.02;;
41201;SDS011;26936;50.524;8.684;2024-03-02T11:12:29;12.88;;;7.90;;
41201;SDS011;26936;50.524;8.684;2024-03-02T11:15:01;12.48;;;7.05;;
41201;SDS011;26936;50.524;8.684;2024-03-02T11:17:35;13.30;;;7.90;;
41201;SDS011;26936;50.524;8.684;2024-03-02T11:20:02;11.80;;;6.85;;
41201;SDS011;26936;50.524;8.684;2024-03-02T11:22:33;12.50;;;7.03;;
41201;SDS011;26936;50.524;8.684;2024-03-02T11:25:01;9.30;;;6.07;;
41201;SDS011;26936;50.524;8.684;2024-03-02T11:30:11;9.82;;;6.50;;
41201;SDS011;26936;50.524;8.684;2024-03-02T11:33:01;11.02;;;6.95;;
41201;SDS011;26936;50.524;8.684;2024-03-02T11:35:44;12.55;;;6.47;;
41201;SDS011;26936;50.524;8.684;2024-03-02T11:38:13;8.93;;;6.10;;
41201;SDS011;26936;50.524;8.684;2024-03-02T11:40:39;10.10;;;6.28;;
41201;SDS011;26936;50.524;8.684;2024-03-02T11:43:05;10.40;;;5.85;;
41201;SDS011;26936;50.524;8.684;2024-03-02T11:45:31;16.00;;;6.15;;
41201;SDS011;26936;50.524;8.684;2024-03-02T11:47:58;10.25;;;6.65;;
41201;SDS011;26936;50.524;8.684;2024-03-02T11:50:33;11.07;;;6.22;;
41201;SDS011;26936;50.524;8.684;2024-03-02T11:53:00;8.27;;;5.20;;
41201;SDS011;26936;50.524;8.684;2024-03-02T11:55:25;8.52;;;5.53;;
41201;SDS011;26936;50.524;8.684;2024-03-02T11:57:54;8.02;;;5.30;;
41201;SDS011;26936;50.524;8.684;2024-03-02T12:00:20;9.70;;;6.30;;
41201;SDS011;26936;50.524;8.684;2024-03-02T12:02:46;13.07;;;6.15;;
41201;SDS011;26936;50.524;8.684;2024-03-02T12:05:14;10.00;;;6.38;;
41201;SDS011;26936;50.524;8.684;2024-03-02T12:07:41;9.93;;;6.00;;
41201;SDS011;26936;50.524;8.684;2024-03-02T12:10:08;9.93;;;5.60;;
41201;SDS011;26936;50.524;8.684;2024-03-02T12:12:33;7.47;;;5.40;;
41201;SDS011;26936;50.524;8.684;2024-03-02T12:14:59;10.10;;;5.83;;
41201;SDS011;26936;50.524;8.684;2024-03-02T12:17:25;8.32;;;5.88;;
41201;SDS011;26936;50.524;8.684;2024-03-02T12:19:51;9.52;;;5.78;;
41201;SDS011;26936;50.524;8.684;2024-03-02T12:22:17;9.85;;;6.00;;
41201;SDS011;26936;50.524;8.684;2024-03-02T12:24:43;10.90;;;7.13;;
41201;SDS011;26936;50.524;8.684;2024-03-02T12:27:12;11.73;;;7.10;;
41201;SDS011;26936;50.524;8.684;2024-03-02T12:29:39;10.48;;;7.10;;
41201;SDS011;26936;50.524;8.684;2024-03-02T12:32:05;9.68;;;6.45;;
41201;SDS011;26936;50.524;8.684;2024-03-02T12:34:31;9.65;;;6.45;;
41201;SDS011;26936;50.524;8.684;2024-03-02T12:36:57;12.10;;;6.25;;
41201;SDS011;26936;50.524;8.684;2024-03-02T12:39:23;9.63;;;6.60;;
41201;SDS011;26936;50.524;8.684;2024-03-02T12:41:49;8.68;;;5.80;;
41201;SDS011;26936;50.524;8.684;2024-03-02T12:44:15;8.52;;;5.47;;
41201;SDS011;26936;50.524;8.684;2024-03-02T12:46:41;12.07;;;5.53;;
41201;SDS011;26936;50.524;8.684;2024-03-02T12:49:07;8.35;;;5.60;;
41201;SDS011;26936;50.524;8.684;2024-03-02T12:51:34;8.10;;;5.35;;
41201;SDS011;26936;50.524;8.684;2024-03-02T12:54:00;8.07;;;5.07;;
41201;SDS011;26936;50.524;8.684;2024-03-02T12:56:25;7.68;;;5.15;;
41201;SDS011;26936;50.524;8.684;2024-03-02T12:58:55;9.30;;;5.43;;
41201;SDS011;26936;50.524;8.684;2024-03-02T13:01:20;7.57;;;5.07;;
41201;SDS011;26936;50.524;8.684;2024-03-02T13:03:48;8.70;;;5.35;;
41201;SDS011;26936;50.524;8.684;2024-03-02T13:06:17;7.47;;;4.90;;
41201;SDS011;26936;50.524;8.684;2024-03-02T13:08:43;8.60;;;4.80;;
41201;SDS011;26936;50.524;8.684;2024-03-02T13:11:10;6.85;;;4.93;;
41201;SDS011;26936;50.524;8.684;2024-03-02T13:13:35;7.03;;;4.65;;
41201;SDS011;26936;50.524;8.684;2024-03-02T13:16:01;7.85;;;4.38;;
41201;SDS011;26936;50.524;8.684;2024-03-02T13:18:28;7.65;;;4.65;;
41201;SDS011;26936;50.524;8.684;2024-03-02T13:20:54;7.97;;;4.57;;
41201;SDS011;26936;50.524;8.684;2024-03-02T13:23:21;7.78;;;4.63;;
41201;SDS011;26936;50.524;8.684;2024-03-02T13:25:46;8.55;;;4.40;;
41201;SDS011;26936;50.524;8.684;2024-03-02T13:28:12;5.93;;;3.58;;
41201;SDS011;26936;50.524;8.684;2024-03-02T13:30:38;5.40;;;3.42;;
41201;SDS011;26936;50.524;8.684;2024-03-02T13:33:03;4.72;;;3.17;;
41201;SDS011;26936;50.524;8.684;2024-03-02T13:35:29;7.38;;;3.15;;
41201;SDS011;26936;50.524;8.684;2024-03-02T13:37:54;12.47;;;4.10;;
41201;SDS011;26936;50.524;8.684;2024-03-02T13:40:19;6.13;;;3.40;;
41201;SDS011;26936;50.524;8.684;2024-03-02T13:42:48;8.52;;;3.92;;
41201;SDS011;26936;50.524;8.684;2024-03-02T13:45:15;4.85;;;2.85;;
41201;SDS011;26936;50.524;8.684;2024-03-02T13:47:41;5.32;;;3.30;;
41201;SDS011;26936;50.524;8.684;2024-03-02T13:50:07;5.03;;;3.50;;
41201;SDS011;26936;50.524;8.684;2024-03-02T13:52:32;3.88;;;2.80;;
41201;SDS011;26936;50.524;8.684;2024-03-02T13:54:57;3.97;;;2.35;;
41201;SDS011;26936;50.524;8.684;2024-03-02T13:57:23;3.13;;;2.00;;
41201;SDS011;26936;50.524;8.684;2024-03-02T13:59:48;4.00;;;2.75;;
41201;SDS011;26936;50.524;8.684;2024-03-02T14:02:14;3.92;;;2.67;;
41201;SDS011;26936;50.524;8.684;2024-03-02T14:04:39;3.88;;;2.75;;
41201;SDS011;26936;50.524;8.684;2024-03-02T14:07:05;4.63;;;3.20;;
41201;SDS011;26936;50.524;8.684;2024-03-02T14:09:33;4.35;;;2.60;;
41201;SDS011;26936;50.524;8.684;2024-03-02T14:11:59;4.85;;;2.80;;
41201;SDS011;26936;50.524;8.684;2024-03-02T14:14:27;5.13;;;2.70;;
41201;SDS011;26936;50.524;8.684;2024-03-02T14:16:54;4.50;;;2.85;;
41201;SDS011;26936;50.524;8.684;2024-03-02T14:19:20;3.15;;;2.33;;
41201;SDS011;26936;50.524;8.684;2024-03-02T14:21:46;4.20;;;2.85;;
41201;SDS011;26936;50.524;8.684;2024-03-02T14:24:12;4.88;;;2.53;;
41201;SDS011;26936;50.524;8.684;2024-03-02T14:26:37;3.40;;;2.35;;
41201;SDS011;26936;50.524;8.684;2024-03-02T14:29:03;3.25;;;2.35;;
41201;SDS011;26936;50.524;8.684;2024-03-02T14:31:29;3.60;;;2.40;;
41201;SDS011;26936;50.524;8.684;2024-03-02T14:33:56;3.97;;;2.47;;
41201;SDS011;26936;50.524;8.684;2024-03-02T14:36:21;2.70;;;2.22;;